sensor_id;sensor_type;location;lat;lon;timestamp;P1;durP1;ratioP1;P2;durP2;ratioP2
66542;SDS011;53395;37.360;-122.046;2023-05-07T00:00:34;1.55;;;0.40;;
66542;SDS011;53395;37.360;-122.046;2023-05-07T00:03:18;1.67;;;0.40;;
66542;SDS011;53395;37.360;-122.046;2023-05-07T00:08:48;2.78;;;0.50;;
66542;SDS011;53395;37.360;-122.046;2023-05-07T00:11:32;3.38;;;0.75;;
66542;SDS011;53395;37.360;-122.046;2023-05-07T00:14:17;2.33;;;0.50;;
66542;SDS011;53395;37.360;-122.046;2023-05-07T00:17:01;2.72;;;0.60;;
66542;SDS011;53395;37.360;-122.046;2023-05-07T00:19:46;2.30;;;0.40;;
66542;SDS011;53395;37.360;-122.046;2023-05-07T00:22:30;1.15;;;0.30;;
66542;SDS011;53395;37.360;-122.046;2023-05-07T00:25:16;3.53;;;0.55;;
66542;SDS011;53395;37.360;-122.046;2023-05-07T00:28:00;3.03;;;0.50;;
66542;SDS011;53395;37.360;-122.046;2023-05-07T00:30:47;2.85;;;0.50;;
66542;SDS011;53395;37.360;-122.046;2023-05-07T00:33:31;2.40;;;0.50;;
66542;SDS011;53395;37.360;-122.046;2023-05-07T00:36:16;1.95;;;0.55;;
66542;SDS011;53395;37.360;-122.046;2023-05-07T00:39:00;1.08;;;0.40;;
66542;SDS011;53395;37.360;-122.046;2023-05-07T00:41:47;4.03;;;0.50;;
66542;SDS011;53395;37.360;-122.046;2023-05-07T00:44:31;1.50;;;0.60;;
66542;SDS011;53395;37.360;-122.046;2023-05-07T00:47:15;2.92;;;0.50;;
66542;SDS011;53395;37.360;-122.046;2023-05-07T00:50:00;3.65;;;0.60;;
66542;SDS011;53395;37.360;-122.046;2023-05-07T00:52:45;3.13;;;0.60;;
66542;SDS011;53395;37.360;-122.046;2023-05-07T00:55:30;2.60;;;0.63;;
66542;SDS011;53395;37.360;-122.046;2023-05-07T00:58:14;2.13;;;0.50;;
66542;SDS011;53395;37.360;-122.046;2023-05-07T01:00:59;4.95;;;0.60;;
66542;SDS011;53395;37.360;-122.046;2023-05-07T01:03:44;2.65;;;0.50;;
66542;SDS011;53395;37.360;-122.046;2023-05-07T01:06:28;2.88;;;0.63;;
66542;SDS011;53395;37.360;-122.046;2023-05-07T01:11:57;1.70;;;0.50;;
66542;SDS011;53395;37.360;-122.046;2023-05-07T01:14:43;4.03;;;0.90;;
66542;SDS011;53395;37.360;-122.046;2023-05-07T01:17:28;1.38;;;0.30;;
66542;SDS011;53395;37.360;-122.046;2023-05-07T01:20:12;2.88;;;0.52;;
66542;SDS011;53395;37.360;-122.046;2023-05-07T01:22:57;4.72;;;0.60;;
66542;SDS011;53395;37.360;-122.046;2023-05-07T01:25:50;2.05;;;0.57;;
66542;SDS011;53395;37.360;-122.046;2023-05-07T01:28:34;2.97;;;0.50;;
66542;SDS011;53395;37.360;-122.046;2023-05-07T01:31:19;2.85;;;0.60;;
66542;SDS011;53395;37.360;-122.046;2023-05-07T01:34:04;4.10;;;1.45;;
66542;SDS011;53395;37.360;-122.046;2023-05-07T01:36:49;1.65;;;0.47;;
66542;SDS011;53395;37.360;-122.046;2023-05-07T01:39:35;4.70;;;0.50;;
66542;SDS011;53395;37.360;-122.046;2023-05-07T01:42:20;2.20;;;0.70;;
66542;SDS011;53395;37.360;-122.046;2023-05-07T01:45:05;2.50;;;0.50;;
66542;SDS011;53395;37.360;-122.046;2023-05-07T01:47:50;2.65;;;0.70;;
66542;SDS011;53395;37.360;-122.046;2023-05-07T01:53:19;2.88;;;0.60;;
66542;SDS011;53395;37.360;-122.046;2023-05-07T01:56:04;3.25;;;0.60;;
66542;SDS011;53395;37.360;-122.046;2023-05-07T01:58:49;2.22;;;0.40;;
66542;SDS011;53395;37.360;-122.046;2023-05-07T02:01:35;1.45;;;0.43;;
66542;SDS011;53395;37.360;-122.046;2023-05-07T02:04:20;2.33;;;0.47;;
66542;SDS011;53395;37.360;-122.046;2023-05-07T02:07:04;4.30;;;0.63;;
66542;SDS011;53395;37.360;-122.046;2023-05-07T02:09:49;2.85;;;0.52;;
66542;SDS011;53395;37.360;-122.046;2023-05-07T02:12:33;3.15;;;0.50;;
66542;SDS011;53395;37.360;-122.046;2023-05-07T02:15:18;2.75;;;0.60;;
66542;SDS011;53395;37.360;-122.046;2023-05-07T02:18:06;3.40;;;0.60;;
66542;SDS011;53395;37.360;-122.046;2023-05-07T02:20:50;4.40;;;0.60;;
66542;SDS011;53395;37.360;-122.046;2023-05-07T02:23:35;1.70;;;0.50;;
66542;SDS011;53395;37.360;-122.046;2023-05-07T02:26:19;3.58;;;0.43;;
66542;SDS011;53395;37.360;-122.046;2023-05-07T02:29:05;3.97;;;0.65;;
66542;SDS011;53395;37.360;-122.046;2023-05-07T02:31:49;2.83;;;0.70;;
66542;SDS011;53395;37.360;-122.046;2023-05-07T02:37:18;2.45;;;0.50;;
66542;SDS011;53395;37.360;-122.046;2023-05-07T02:40:03;1.98;;;0.50;;
66542;SDS011;53395;37.360;-122.046;2023-05-07T02:42:48;2.80;;;0.63;;
66542;SDS011;53395;37.360;-122.046;2023-05-07T02:45:32;2.78;;;0.65;;
66542;SDS011;53395;37.360;-122.046;2023-05-07T02:48:17;2.15;;;0.50;;
66542;SDS011;53395;37.360;-122.046;2023-05-07T02:51:02;2.78;;;0.60;;
66542;SDS011;53395;37.360;-122.046;2023-05-07T02:53:46;2.67;;;0.65;;
66542;SDS011;53395;37.360;-122.046;2023-05-07T02:56:30;2.22;;;0.60;;
66542;SDS011;53395;37.360;-122.046;2023-05-07T02:59:15;2.83;;;0.70;;
66542;SDS011;53395;37.360;-122.046;2023-05-07T03:01:59;2.80;;;0.70;;
66542;SDS011;53395;37.360;-122.046;2023-05-07T03:04:44;5.78;;;0.85;;
66542;SDS011;53395;37.360;-122.046;2023-05-07T03:07:28;3.05;;;0.82;;
66542;SDS011;53395;37.360;-122.046;2023-05-07T03:10:12;3.00;;;0.80;;
66542;SDS011;53395;37.360;-122.046;2023-05-07T03:12:57;5.55;;;0.68;;
66542;SDS011;53395;37.360;-122.046;2023-05-07T03:15:41;4.05;;;0.70;;
66542;SDS011;53395;37.360;-122.046;2023-05-07T03:18:25;3.40;;;0.70;;
66542;SDS011;53395;37.360;-122.046;2023-05-07T03:21:09;2.33;;;0.70;;
66542;SDS011;53395;37.360;-122.046;2023-05-07T03:23:54;2.85;;;0.70;;
66542;SDS011;53395;37.360;-122.046;2023-05-07T03:26:39;2.13;;;0.50;;
66542;SDS011;53395;37.360;-122.046;2023-05-07T03:29:23;3.45;;;1.00;;
66542;SDS011;53395;37.360;-122.046;2023-05-07T03:32:07;2.90;;;0.63;;
66542;SDS011;53395;37.360;-122.046;2023-05-07T03:34:52;3.63;;;0.68;;
66542;SDS011;53395;37.360;-122.046;2023-05-07T03:37:37;4.68;;;0.70;;
66542;SDS011;53395;37.360;-122.046;2023-05-07T03:40:22;2.80;;;0.52;;
66542;SDS011;53395;37.360;-122.046;2023-05-07T03:43:06;4.13;;;0.70;;
66542;SDS011;53395;37.360;-122.046;2023-05-07T03:45:51;3.53;;;0.70;;
66542;SDS011;53395;37.360;-122.046;2023-05-07T03:48:37;2.70;;;0.50;;
66542;SDS011;53395;37.360;-122.046;2023-05-07T03:51:22;2.53;;;0.70;;
66542;SDS011;53395;37.360;-122.046;2023-05-07T03:54:06;4.55;;;0.90;;
66542;SDS011;53395;37.360;-122.046;2023-05-07T03:56:51;2.15;;;0.52;;
66542;SDS011;53395;37.360;-122.046;2023-05-07T03:59:36;4.00;;;0.68;;
66542;SDS011;53395;37.360;-122.046;2023-05-07T04:02:20;2.47;;;0.75;;
66542;SDS011;53395;37.360;-122.046;2023-05-07T04:05:05;3.05;;;0.60;;
66542;SDS011;53395;37.360;-122.046;2023-05-07T04:07:50;2.28;;;0.60;;
66542;SDS011;53395;37.360;-122.046;2023-05-07T04:10:34;2.30;;;0.50;;
66542;SDS011;53395;37.360;-122.046;2023-05-07T04:13:19;3.90;;;0.80;;
66542;SDS011;53395;37.360;-122.046;2023-05-07T04:16:04;3.90;;;0.63;;
66542;SDS011;53395;37.360;-122.046;2023-05-07T04:18:48;2.85;;;0.60;;
66542;SDS011;53395;37.360;-122.046;2023-05-07T04:21:33;2.28;;;0.57;;
66542;SDS011;53395;37.360;-122.046;2023-05-07T04:24:17;2.75;;;0.80;;
66542;SDS011;53395;37.360;-122.046;2023-05-07T04:27:02;3.10;;;0.70;;
66542;SDS011;53395;37.360;-122.046;2023-05-07T04:29:46;2.85;;;0.60;;
66542;SDS011;53395;37.360;-122.046;2023-05-07T04:32:31;3.28;;;0.90;;
66542;SDS011;53395;37.360;-122.046;2023-05-07T04:35:15;2.78;;;0.90;;
66542;SDS011;53395;37.360;-122.046;2023-05-07T04:38:00;2.30;;;0.60;;
66542;SDS011;53395;37.360;-122.046;2023-05-07T04:40:45;6.15;;;0.90;;
66542;SDS011;53395;37.360;-122.046;2023-05-07T04:43:30;3.60;;;1.08;;
66542;SDS011;53395;37.360;-122.046;2023-05-07T04:46:14;3.45;;;0.80;;
66542;SDS011;53395;37.360;-122.046;2023-05-07T04:48:59;4.57;;;1.10;;
66542;SDS011;53395;37.360;-122.046;2023-05-07T04:51:44;3.03;;;1.20;;
66542;SDS011;53395;37.360;-122.046;2023-05-07T04:54:29;2.40;;;0.80;;
66542;SDS011;53395;37.360;-122.046;2023-05-07T04:57:14;3.28;;;0.90;;
66542;SDS011;53395;37.360;-122.046;2023-05-07T04:59:58;4.20;;;0.95;;
66542;SDS011;53395;37.360;-122.046;2023-05-07T05:02:43;3.60;;;0.95;;
66542;SDS011;53395;37.360;-122.046;2023-05-07T05:05:27;5.35;;;1.13;;
66542;SDS011;53395;37.360;-122.046;2023-05-07T05:08:11;2.45;;;1.02;;
66542;SDS011;53395;37.360;-122.046;2023-05-07T05:10:56;3.20;;;1.20;;
66542;SDS011;53395;37.360;-122.046;2023-05-07T05:13:41;4.97;;;1.10;;
66542;SDS011;53395;37.360;-122.046;2023-05-07T05:16:25;3.88;;;1.00;;
66542;SDS011;53395;37.360;-122.046;2023-05-07T05:19:09;3.53;;;1.10;;
66542;SDS011;53395;37.360;-122.046;2023-05-07T05:21:54;4.35;;;1.13;;
66542;SDS011;53395;37.360;-122.046;2023-05-07T05:24:39;4.75;;;1.70;;
66542;SDS011;53395;37.360;-122.046;2023-05-07T05:27:23;5.18;;;1.23;;
66542;SDS011;53395;37.360;-122.046;2023-05-07T05:30:08;3.22;;;1.00;;
66542;SDS011;53395;37.360;-122.046;2023-05-07T05:32:52;5.47;;;1.33;;
66542;SDS011;53395;37.360;-122.046;2023-05-07T05:35:37;6.72;;;1.38;;
66542;SDS011;53395;37.360;-122.046;2023-05-07T05:38:21;6.53;;;1.20;;
66542;SDS011;53395;37.360;-122.046;2023-05-07T05:41:06;3.63;;;1.00;;
66542;SDS011;53395;37.360;-122.046;2023-05-07T05:43:50;3.75;;;1.17;;
66542;SDS011;53395;37.360;-122.046;2023-05-07T05:46:34;4.60;;;1.10;;
66542;SDS011;53395;37.360;-122.046;2023-05-07T05:49:19;3.10;;;1.15;;
66542;SDS011;53395;37.360;-122.046;2023-05-07T05:52:04;4.20;;;1.75;;
66542;SDS011;53395;37.360;-122.046;2023-05-07T05:54:48;4.43;;;1.30;;
66542;SDS011;53395;37.360;-122.046;2023-05-07T05:57:33;3.58;;;1.38;;
66542;SDS011;53395;37.360;-122.046;2023-05-07T06:00:18;4.70;;;1.30;;
66542;SDS011;53395;37.360;-122.046;2023-05-07T06:03:02;4.28;;;1.50;;
66542;SDS011;53395;37.360;-122.046;2023-05-07T06:05:47;4.00;;;1.35;;
66542;SDS011;53395;37.360;-122.046;2023-05-07T06:08:32;3.58;;;1.50;;
66542;SDS011;53395;37.360;-122.046;2023-05-07T06:11:16;4.65;;;1.38;;
66542;SDS011;53395;37.360;-122.046;2023-05-07T06:14:01;7.38;;;1.48;;
66542;SDS011;53395;37.360;-122.046;2023-05-07T06:16:45;3.85;;;1.33;;
66542;SDS011;53395;37.360;-122.046;2023-05-07T06:19:30;3.88;;;1.27;;
66542;SDS011;53395;37.360;-122.046;2023-05-07T06:22:15;5.93;;;1.40;;
66542;SDS011;53395;37.360;-122.046;2023-05-07T06:24:59;4.22;;;1.30;;
66542;SDS011;53395;37.360;-122.046;2023-05-07T06:27:44;6.30;;;1.65;;
66542;SDS011;53395;37.360;-122.046;2023-05-07T06:30:28;4.18;;;1.30;;
66542;SDS011;53395;37.360;-122.046;2023-05-07T06:33:14;6.00;;;1.65;;
66542;SDS011;53395;37.360;-122.046;2023-05-07T06:35:58;4.13;;;1.40;;
66542;SDS011;53395;37.360;-122.046;2023-05-07T06:38:45;5.50;;;1.45;;
66542;SDS011;53395;37.360;-122.046;2023-05-07T06:41:29;3.85;;;1.88;;
66542;SDS011;53395;37.360;-122.046;2023-05-07T06:44:14;3.42;;;1.38;;
66542;SDS011;53395;37.360;-122.046;2023-05-07T06:46:58;3.97;;;1.50;;
66542;SDS011;53395;37.360;-122.046;2023-05-07T06:49:43;5.78;;;1.70;;
66542;SDS011;53395;37.360;-122.046;2023-05-07T06:52:28;4.82;;;1.80;;
66542;SDS011;53395;37.360;-122.046;2023-05-07T06:55:12;5.07;;;1.50;;
66542;SDS011;53395;37.360;-122.046;2023-05-07T06:57:57;4.32;;;1.40;;
66542;SDS011;53395;37.360;-122.046;2023-05-07T07:00:44;3.47;;;1.50;;
66542;SDS011;53395;37.360;-122.046;2023-05-07T07:03:29;5.93;;;1.80;;
66542;SDS011;53395;37.360;-122.046;2023-05-07T07:06:14;6.10;;;1.83;;
66542;SDS011;53395;37.360;-122.046;2023-05-07T07:08:59;7.30;;;1.73;;
66542;SDS011;53395;37.360;-122.046;2023-05-07T07:11:44;5.13;;;1.83;;
66542;SDS011;53395;37.360;-122.046;2023-05-07T07:14:29;3.50;;;1.52;;
66542;SDS011;53395;37.360;-122.046;2023-05-07T07:17:13;4.85;;;1.65;;
66542;SDS011;53395;37.360;-122.046;2023-05-07T07:19:57;4.70;;;1.40;;
66542;SDS011;53395;37.360;-122.046;2023-05-07T07:22:42;5.53;;;1.77;;
66542;SDS011;53395;37.360;-122.046;2023-05-07T07:25:26;10.15;;;2.03;;
66542;SDS011;53395;37.360;-122.046;2023-05-07T07:28:11;4.45;;;1.63;;
66542;SDS011;53395;37.360;-122.046;2023-05-07T07:30:55;4.90;;;1.80;;
66542;SDS011;53395;37.360;-122.046;2023-05-07T07:33:40;6.60;;;2.00;;
66542;SDS011;53395;37.360;-122.046;2023-05-07T07:36:25;4.75;;;1.55;;
66542;SDS011;53395;37.360;-122.046;2023-05-07T07:39:10;6.18;;;1.40;;
66542;SDS011;53395;37.360;-122.046;2023-05-07T07:41:54;6.72;;;1.40;;
66542;SDS011;53395;37.360;-122.046;2023-05-07T07:44:39;5.55;;;1.25;;
66542;SDS011;53395;37.360;-122.046;2023-05-07T07:47:24;5.10;;;1.52;;
66542;SDS011;53395;37.360;-122.046;2023-05-07T07:50:08;7.82;;;1.55;;
66542;SDS011;53395;37.360;-122.046;2023-05-07T07:52:53;3.72;;;1.38;;
66542;SDS011;53395;37.360;-122.046;2023-05-07T07:55:38;5.10;;;1.52;;
66542;SDS011;53395;37.360;-122.046;2023-05-07T07:58:23;5.45;;;1.73;;
66542;SDS011;53395;37.360;-122.046;2023-05-07T08:01:09;4.32;;;1.20;;
66542;SDS011;53395;37.360;-122.046;2023-05-07T08:03:53;5.63;;;1.65;;
66542;SDS011;53395;37.360;-122.046;2023-05-07T08:06:38;5.85;;;1.20;;
66542;SDS011;53395;37.360;-122.046;2023-05-07T08:09:22;3.30;;;1.10;;
66542;SDS011;53395;37.360;-122.046;2023-05-07T08:12:07;6.05;;;1.48;;
66542;SDS011;53395;37.360;-122.046;2023-05-07T08:14:51;5.93;;;1.40;;
66542;SDS011;53395;37.360;-122.046;2023-05-07T08:17:35;2.85;;;1.45;;
66542;SDS011;53395;37.360;-122.046;2023-05-07T08:20:20;8.73;;;1.50;;
66542;SDS011;53395;37.360;-122.046;2023-05-07T08:23:05;6.22;;;1.38;;
66542;SDS011;53395;37.360;-122.046;2023-05-07T08:25:51;3.58;;;1.23;;
66542;SDS011;53395;37.360;-122.046;2023-05-07T08:28:36;4.35;;;1.25;;
66542;SDS011;53395;37.360;-122.046;2023-05-07T08:31:20;3.20;;;1.13;;
66542;SDS011;53395;37.360;-122.046;2023-05-07T08:34:04;4.18;;;1.40;;
66542;SDS011;53395;37.360;-122.046;2023-05-07T08:36:50;5.70;;;1.30;;
66542;SDS011;53395;37.360;-122.046;2023-05-07T08:39:34;4.65;;;1.50;;
66542;SDS011;53395;37.360;-122.046;2023-05-07T08:42:19;3.50;;;1.48;;
66542;SDS011;53395;37.360;-122.046;2023-05-07T08:45:08;4.22;;;1.58;;
66542;SDS011;53395;37.360;-122.046;2023-05-07T08:47:55;10.48;;;1.73;;
66542;SDS011;53395;37.360;-122.046;2023-05-07T08:50:40;4.60;;;1.70;;
66542;SDS011;53395;37.360;-122.046;2023-05-07T08:53:25;9.20;;;1.80;;
66542;SDS011;53395;37.360;-122.046;2023-05-07T08:56:10;5.53;;;1.52;;
66542;SDS011;53395;37.360;-122.046;2023-05-07T08:58:55;4.43;;;1.58;;
66542;SDS011;53395;37.360;-122.046;2023-05-07T09:01:42;5.30;;;1.70;;
66542;SDS011;53395;37.360;-122.046;2023-05-07T09:04:27;4.50;;;1.60;;
66542;SDS011;53395;37.360;-122.046;2023-05-07T09:07:11;4.68;;;1.75;;
66542;SDS011;53395;37.360;-122.046;2023-05-07T09:09:56;6.63;;;1.48;;
66542;SDS011;53395;37.360;-122.046;2023-05-07T09:12:41;6.78;;;1.83;;
66542;SDS011;53395;37.360;-122.046;2023-05-07T09:15:26;4.47;;;1.60;;
66542;SDS011;53395;37.360;-122.046;2023-05-07T09:18:14;5.95;;;1.70;;
66542;SDS011;53395;37.360;-122.046;2023-05-07T09:20:59;5.07;;;1.75;;
66542;SDS011;53395;37.360;-122.046;2023-05-07T09:23:43;5.68;;;1.38;;
66542;SDS011;53395;37.360;-122.046;2023-05-07T09:26:28;3.60;;;1.70;;
66542;SDS011;53395;37.360;-122.046;2023-05-07T09:29:12;4.72;;;1.45;;
66542;SDS011;53395;37.360;-122.046;2023-05-07T09:31:57;5.57;;;1.73;;
66542;SDS011;53395;37.360;-122.046;2023-05-07T09:34:41;4.40;;;1.63;;
66542;SDS011;53395;37.360;-122.046;2023-05-07T09:37:26;4.53;;;1.33;;
66542;SDS011;53395;37.360;-122.046;2023-05-07T09:40:20;3.75;;;1.67;;
66542;SDS011;53395;37.360;-122.046;2023-05-07T09:43:09;6.60;;;1.60;;
66542;SDS011;53395;37.360;-122.046;2023-05-07T09:45:54;5.07;;;1.67;;
66542;SDS011;53395;37.360;-122.046;2023-05-07T09:48:41;5.57;;;1.40;;
66542;SDS011;53395;37.360;-122.046;2023-05-07T09:51:29;4.97;;;1.40;;
66542;SDS011;53395;37.360;-122.046;2023-05-07T09:54:15;3.72;;;1.40;;
66542;SDS011;53395;37.360;-122.046;2023-05-07T09:57:03;3.58;;;1.63;;
66542;SDS011;53395;37.360;-122.046;2023-05-07T09:59:47;4.47;;;1.73;;
66542;SDS011;53395;37.360;-122.046;2023-05-07T10:02:33;3.50;;;1.60;;
66542;SDS011;53395;37.360;-122.046;2023-05-07T10:05:20;3.35;;;1.60;;
66542;SDS011;53395;37.360;-122.046;2023-05-07T10:08:05;3.42;;;1.67;;
66542;SDS011;53395;37.360;-122.046;2023-05-07T10:10:50;6.10;;;1.92;;
66542;SDS011;53395;37.360;-122.046;2023-05-07T10:13:35;6.43;;;1.80;;
66542;SDS011;53395;37.360;-122.046;2023-05-07T10:19:05;4.07;;;1.60;;
66542;SDS011;53395;37.360;-122.046;2023-05-07T10:21:56;5.63;;;2.10;;
66542;SDS011;53395;37.360;-122.046;2023-05-07T10:24:43;5.97;;;2.28;;
66542;SDS011;53395;37.360;-122.046;2023-05-07T10:27:29;6.25;;;2.10;;
66542;SDS011;53395;37.360;-122.046;2023-05-07T10:33:16;5.05;;;1.48;;
66542;SDS011;53395;37.360;-122.046;2023-05-07T10:36:04;6.07;;;1.50;;
66542;SDS011;53395;37.360;-122.046;2023-05-07T10:38:50;5.85;;;1.42;;
66542;SDS011;53395;37.360;-122.046;2023-05-07T10:41:34;5.38;;;1.42;;
66542;SDS011;53395;37.360;-122.046;2023-05-07T10:44:28;5.65;;;1.50;;
66542;SDS011;53395;37.360;-122.046;2023-05-07T10:47:14;5.43;;;1.35;;
66542;SDS011;53395;37.360;-122.046;2023-05-07T10:53:35;3.35;;;1.27;;
66542;SDS011;53395;37.360;-122.046;2023-05-07T11:02:05;6.20;;;1.50;;
66542;SDS011;53395;37.360;-122.046;2023-05-07T11:05:25;3.60;;;1.45;;
66542;SDS011;53395;37.360;-122.046;2023-05-07T11:08:02;10.23;;;1.70;;
66542;SDS011;53395;37.360;-122.046;2023-05-07T11:10:51;5.05;;;1.40;;
66542;SDS011;53395;37.360;-122.046;2023-05-07T11:13:45;6.32;;;1.40;;
66542;SDS011;53395;37.360;-122.046;2023-05-07T11:16:30;4.55;;;1.48;;
66542;SDS011;53395;37.360;-122.046;2023-05-07T11:19:16;6.60;;;1.40;;
66542;SDS011;53395;37.360;-122.046;2023-05-07T11:22:01;4.85;;;1.67;;
66542;SDS011;53395;37.360;-122.046;2023-05-07T11:24:46;5.95;;;1.35;;
66542;SDS011;53395;37.360;-122.046;2023-05-07T11:27:30;3.78;;;1.42;;
66542;SDS011;53395;37.360;-122.046;2023-05-07T11:30:18;6.28;;;1.80;;
66542;SDS011;53395;37.360;-122.046;2023-05-07T11:33:03;6.82;;;1.30;;
66542;SDS011;53395;37.360;-122.046;2023-05-07T11:35:48;4.55;;;1.40;;
66542;SDS011;53395;37.360;-122.046;2023-05-07T11:38:36;4.43;;;1.33;;
66542;SDS011;53395;37.360;-122.046;2023-05-07T11:41:21;8.45;;;1.50;;
66542;SDS011;53395;37.360;-122.046;2023-05-07T11:44:06;3.45;;;1.48;;
66542;SDS011;53395;37.360;-122.046;2023-05-07T11:46:51;5.40;;;1.98;;
66542;SDS011;53395;37.360;-122.046;2023-05-07T11:49:36;5.85;;;1.73;;
66542;SDS011;53395;37.360;-122.046;2023-05-07T11:52:21;3.10;;;1.25;;
66542;SDS011;53395;37.360;-122.046;2023-05-07T11:55:06;6.47;;;1.67;;
66542;SDS011;53395;37.360;-122.046;2023-05-07T11:57:51;7.88;;;1.58;;
66542;SDS011;53395;37.360;-122.046;2023-05-07T12:00:36;5.30;;;1.95;;
66542;SDS011;53395;37.360;-122.046;2023-05-07T12:03:21;5.13;;;1.63;;
66542;SDS011;53395;37.360;-122.046;2023-05-07T12:06:05;6.75;;;1.77;;
66542;SDS011;53395;37.360;-122.046;2023-05-07T12:08:50;6.18;;;1.70;;
66542;SDS011;53395;37.360;-122.046;2023-05-07T12:11:35;5.78;;;1.60;;
66542;SDS011;53395;37.360;-122.046;2023-05-07T12:14:19;3.22;;;1.63;;
66542;SDS011;53395;37.360;-122.046;2023-05-07T12:17:04;7.88;;;1.80;;
66542;SDS011;53395;37.360;-122.046;2023-05-07T12:19:49;13.43;;;2.45;;
66542;SDS011;53395;37.360;-122.046;2023-05-07T12:22:34;4.82;;;1.60;;
66542;SDS011;53395;37.360;-122.046;2023-05-07T12:25:19;6.25;;;1.40;;
66542;SDS011;53395;37.360;-122.046;2023-05-07T12:28:04;4.07;;;1.73;;
66542;SDS011;53395;37.360;-122.046;2023-05-07T12:30:50;4.63;;;1.48;;
66542;SDS011;53395;37.360;-122.046;2023-05-07T12:33:35;4.32;;;1.90;;
66542;SDS011;53395;37.360;-122.046;2023-05-07T12:36:19;3.40;;;1.55;;
66542;SDS011;53395;37.360;-122.046;2023-05-07T12:39:08;5.55;;;1.35;;
66542;SDS011;53395;37.360;-122.046;2023-05-07T12:41:56;7.85;;;1.63;;
66542;SDS011;53395;37.360;-122.046;2023-05-07T12:44:43;6.10;;;1.60;;
66542;SDS011;53395;37.360;-122.046;2023-05-07T12:47:29;13.10;;;2.53;;
66542;SDS011;53395;37.360;-122.046;2023-05-07T12:50:14;7.45;;;1.88;;
66542;SDS011;53395;37.360;-122.046;2023-05-07T12:52:59;5.22;;;1.70;;
66542;SDS011;53395;37.360;-122.046;2023-05-07T12:55:45;9.15;;;2.10;;
66542;SDS011;53395;37.360;-122.046;2023-05-07T12:58:31;4.95;;;1.98;;
66542;SDS011;53395;37.360;-122.046;2023-05-07T13:01:16;4.97;;;1.75;;
66542;SDS011;53395;37.360;-122.046;2023-05-07T13:04:03;7.20;;;1.58;;
66542;SDS011;53395;37.360;-122.046;2023-05-07T13:06:47;8.10;;;1.73;;
66542;SDS011;53395;37.360;-122.046;2023-05-07T13:09:31;6.40;;;1.80;;
66542;SDS011;53395;37.360;-122.046;2023-05-07T13:12:16;5.30;;;1.58;;
66542;SDS011;53395;37.360;-122.046;2023-05-07T13:15:01;6.63;;;2.08;;
66542;SDS011;53395;37.360;-122.046;2023-05-07T13:17:45;7.28;;;1.88;;
66542;SDS011;53395;37.360;-122.046;2023-05-07T13:20:30;7.53;;;1.80;;
66542;SDS011;53395;37.360;-122.046;2023-05-07T13:23:14;5.40;;;1.67;;
66542;SDS011;53395;37.360;-122.046;2023-05-07T13:25:58;8.80;;;1.98;;
66542;SDS011;53395;37.360;-122.046;2023-05-07T13:28:42;4.07;;;1.73;;
66542;SDS011;53395;37.360;-122.046;2023-05-07T13:31:27;5.80;;;1.65;;
66542;SDS011;53395;37.360;-122.046;2023-05-07T13:34:11;7.78;;;1.90;;
66542;SDS011;53395;37.360;-122.046;2023-05-07T13:36:56;4.15;;;2.10;;
66542;SDS011;53395;37.360;-122.046;2023-05-07T13:39:40;4.93;;;1.67;;
66542;SDS011;53395;37.360;-122.046;2023-05-07T13:42:28;8.85;;;2.10;;
66542;SDS011;53395;37.360;-122.046;2023-05-07T13:45:12;10.90;;;1.88;;
66542;SDS011;53395;37.360;-122.046;2023-05-07T13:47:57;8.75;;;1.80;;
66542;SDS011;53395;37.360;-122.046;2023-05-07T13:50:42;5.50;;;1.77;;
66542;SDS011;53395;37.360;-122.046;2023-05-07T13:53:27;7.30;;;2.10;;
66542;SDS011;53395;37.360;-122.046;2023-05-07T13:56:12;7.88;;;2.00;;
66542;SDS011;53395;37.360;-122.046;2023-05-07T13:58:56;6.38;;;1.83;;
66542;SDS011;53395;37.360;-122.046;2023-05-07T14:01:40;5.95;;;1.60;;
66542;SDS011;53395;37.360;-122.046;2023-05-07T14:04:24;4.88;;;1.30;;
66542;SDS011;53395;37.360;-122.046;2023-05-07T14:07:09;6.85;;;1.92;;
66542;SDS011;53395;37.360;-122.046;2023-05-07T14:09:54;6.13;;;1.67;;
66542;SDS011;53395;37.360;-122.046;2023-05-07T14:12:39;5.85;;;1.65;;
66542;SDS011;53395;37.360;-122.046;2023-05-07T14:15:24;5.53;;;1.98;;
66542;SDS011;53395;37.360;-122.046;2023-05-07T14:18:08;8.10;;;1.73;;
66542;SDS011;53395;37.360;-122.046;2023-05-07T14:20:53;8.18;;;1.75;;
66542;SDS011;53395;37.360;-122.046;2023-05-07T14:23:37;8.73;;;1.50;;
66542;SDS011;53395;37.360;-122.046;2023-05-07T14:26:22;7.47;;;2.05;;
66542;SDS011;53395;37.360;-122.046;2023-05-07T14:29:07;6.40;;;1.65;;
66542;SDS011;53395;37.360;-122.046;2023-05-07T14:31:51;5.50;;;1.58;;
66542;SDS011;53395;37.360;-122.046;2023-05-07T14:34:35;7.47;;;2.38;;
66542;SDS011;53395;37.360;-122.046;2023-05-07T14:37:20;7.28;;;1.88;;
66542;SDS011;53395;37.360;-122.046;2023-05-07T14:40:05;5.45;;;1.70;;
66542;SDS011;53395;37.360;-122.046;2023-05-07T14:42:49;7.57;;;1.92;;
66542;SDS011;53395;37.360;-122.046;2023-05-07T14:45:34;6.20;;;1.50;;
66542;SDS011;53395;37.360;-122.046;2023-05-07T14:48:18;5.57;;;1.60;;
66542;SDS011;53395;37.360;-122.046;2023-05-07T14:51:03;6.85;;;1.67;;
66542;SDS011;53395;37.360;-122.046;2023-05-07T14:53:47;8.38;;;1.92;;
66542;SDS011;53395;37.360;-122.046;2023-05-07T14:56:31;6.40;;;2.10;;
66542;SDS011;53395;37.360;-122.046;2023-05-07T14:59:15;5.40;;;1.60;;
66542;SDS011;53395;37.360;-122.046;2023-05-07T15:02:03;7.25;;;2.08;;
66542;SDS011;53395;37.360;-122.046;2023-05-07T15:04:49;6.28;;;1.90;;
66542;SDS011;53395;37.360;-122.046;2023-05-07T15:07:33;7.70;;;1.80;;
66542;SDS011;53395;37.360;-122.046;2023-05-07T15:10:18;6.03;;;1.60;;
66542;SDS011;53395;37.360;-122.046;2023-05-07T15:13:02;9.70;;;1.98;;
66542;SDS011;53395;37.360;-122.046;2023-05-07T15:15:46;7.93;;;2.30;;
66542;SDS011;53395;37.360;-122.046;2023-05-07T15:18:31;8.18;;;1.75;;
66542;SDS011;53395;37.360;-122.046;2023-05-07T15:21:15;5.50;;;1.90;;
66542;SDS011;53395;37.360;-122.046;2023-05-07T15:24:00;8.02;;;2.45;;
66542;SDS011;53395;37.360;-122.046;2023-05-07T15:26:44;3.97;;;1.92;;
66542;SDS011;53395;37.360;-122.046;2023-05-07T15:29:29;8.13;;;2.15;;
66542;SDS011;53395;37.360;-122.046;2023-05-07T15:32:14;8.32;;;2.03;;
66542;SDS011;53395;37.360;-122.046;2023-05-07T15:34:59;8.15;;;2.17;;
66542;SDS011;53395;37.360;-122.046;2023-05-07T15:37:43;11.98;;;2.58;;
66542;SDS011;53395;37.360;-122.046;2023-05-07T15:40:29;4.13;;;1.85;;
66542;SDS011;53395;37.360;-122.046;2023-05-07T15:43:13;5.40;;;2.25;;
66542;SDS011;53395;37.360;-122.046;2023-05-07T15:45:58;6.95;;;2.40;;
66542;SDS011;53395;37.360;-122.046;2023-05-07T15:48:43;5.93;;;2.05;;
66542;SDS011;53395;37.360;-122.046;2023-05-07T15:51:27;5.43;;;2.17;;
66542;SDS011;53395;37.360;-122.046;2023-05-07T15:54:13;10.98;;;3.60;;
66542;SDS011;53395;37.360;-122.046;2023-05-07T15:57:00;8.02;;;2.55;;
66542;SDS011;53395;37.360;-122.046;2023-05-07T15:59:45;3.53;;;1.98;;
66542;SDS011;53395;37.360;-122.046;2023-05-07T16:02:30;4.47;;;2.20;;
66542;SDS011;53395;37.360;-122.046;2023-05-07T16:05:14;5.07;;;2.03;;
66542;SDS011;53395;37.360;-122.046;2023-05-07T16:07:59;8.15;;;2.72;;
66542;SDS011;53395;37.360;-122.046;2023-05-07T16:10:43;6.90;;;2.50;;
66542;SDS011;53395;37.360;-122.046;2023-05-07T16:13:27;6.72;;;2.20;;
66542;SDS011;53395;37.360;-122.046;2023-05-07T16:16:12;7.05;;;2.53;;